Time;durP1;ratioP1;P1;durP2;ratioP2;P2;SDS_P1;SDS_P2;PMS_P1;PMS_P2;Temp;Humidity;BMP_temperature;BMP_pressure;BME280_temperature;BME280_humidity;BME280_pressure;Samples;Min_cycle;Max_cycle;Signal;HPM_P1;HPM_P2
2021/09/23 00:00:16;;;;;;;22.08;2.60;;;;;;;;;;5069209;28;20016;-38
2021/09/23 00:05:21;;;;;;;16.00;2.47;;;;;;;;;;5064312;28;20082;-38
2021/09/23 00:07:49;;;;;;;10.80;2.10;;;;;;;;;;5068957;28;20503;-43
2021/09/23 00:10:18;;;;;;;16.17;2.50;;;;;;;;;;5071522;28;20021;-39
2021/09/23 00:12:46;;;;;;;13.88;2.38;;;;;;;;;;5066097;28;20039;-37
2021/09/23 00:15:16;;;;;;;22.02;3.00;;;;;;;;;;5070317;28;20154;-37
2021/09/23 00:17:47;;;;;;;19.38;2.30;;;;;;;;;;5070669;28;20472;-38
2021/09/23 00:20:34;;;;;;;22.17;2.85;;;;;;;;;;5071040;28;20067;-38
2021/09/23 00:23:01;;;;;;;12.38;2.67;;;;;;;;;;5065891;28;20092;-41
2021/09/23 00:25:28;;;;;;;23.25;3.03;;;;;;;;;;5067501;28;20032;-38
2021/09/23 00:27:56;;;;;;;13.55;2.28;;;;;;;;;;5077235;28;20032;-38
2021/09/23 00:30:23;;;;;;;21.15;2.90;;;;;;;;;;5063946;28;20044;-39
2021/09/23 00:32:50;;;;;;;15.38;2.97;;;;;;;;;;5072462;28;20043;-38
2021/09/23 00:35:18;;;;;;;12.63;2.03;;;;;;;;;;5067320;28;20039;-38
2021/09/23 00:37:45;;;;;;;12.07;3.20;;;;;;;;;;5068735;28;20366;-38
2021/09/23 00:40:13;;;;;;;13.93;2.92;;;;;;;;;;5063812;28;20028;-38
2021/09/23 00:42:41;;;;;;;21.88;3.30;;;;;;;;;;5069786;28;20039;-37
2021/09/23 00:45:09;;;;;;;19.85;3.30;;;;;;;;;;5066159;28;20379;-38
2021/09/23 00:47:36;;;;;;;21.83;4.57;;;;;;;;;;5069706;28;20476;-38
2021/09/23 00:50:03;;;;;;;17.73;4.22;;;;;;;;;;5074578;28;20494;-39
2021/09/23 00:52:31;;;;;;;15.23;3.75;;;;;;;;;;5070456;28;20037;-42
2021/09/23 00:54:58;;;;;;;20.98;4.50;;;;;;;;;;5068287;28;20434;-38
2021/09/23 00:57:25;;;;;;;17.48;4.05;;;;;;;;;;5076282;28;20024;-37
2021/09/23 00:59:55;;;;;;;20.30;4.18;;;;;;;;;;5076516;28;20027;-38
2021/09/23 01:02:23;;;;;;;18.85;3.60;;;;;;;;;;5078096;28;20025;-42
2021/09/23 01:04:53;;;;;;;19.75;4.18;;;;;;;;;;5078848;28;20111;-38
2021/09/23 01:07:21;;;;;;;15.07;3.58;;;;;;;;;;5064573;28;20115;-40
2021/09/23 01:09:49;;;;;;;16.33;3.88;;;;;;;;;;5076119;28;20028;-38
2021/09/23 01:12:20;;;;;;;17.95;4.03;;;;;;;;;;5075080;28;20068;-42
2021/09/23 01:14:48;;;;;;;;;;;;;;;;;;5088930;28;20024;-39
2021/09/23 01:17:15;;;;;;;22.50;4.18;;;;;;;;;;5072434;28;19908;-38
2021/09/23 01:19:43;;;;;;;18.23;3.80;;;;;;;;;;5071926;28;20028;-39
2021/09/23 01:22:11;;;;;;;19.70;4.43;;;;;;;;;;5077168;28;20074;-38
2021/09/23 01:24:39;;;;;;;14.25;3.58;;;;;;;;;;5074339;28;20055;-39
2021/09/23 01:27:06;;;;;;;15.70;3.30;;;;;;;;;;5067870;28;20029;-38
2021/09/23 01:29:34;;;;;;;14.80;3.30;;;;;;;;;;5074139;28;20021;-39
2021/09/23 01:32:02;;;;;;;21.70;3.75;;;;;;;;;;5073625;28;20044;-38
2021/09/23 01:34:29;;;;;;;17.05;3.15;;;;;;;;;;5067003;28;20451;-39
2021/09/23 01:36:56;;;;;;;11.52;2.80;;;;;;;;;;5084979;28;20016;-42
2021/09/23 01:39:25;;;;;;;17.67;3.20;;;;;;;;;;5073478;28;20028;-37
2021/09/23 01:41:52;;;;;;;11.20;3.20;;;;;;;;;;5069638;28;20036;-38
2021/09/23 01:44:19;;;;;;;15.95;3.80;;;;;;;;;;5076062;28;20073;-38
2021/09/23 01:46:46;;;;;;;7.45;3.13;;;;;;;;;;5076855;28;20031;-38
2021/09/23 01:49:13;;;;;;;18.30;3.45;;;;;;;;;;5079626;28;20020;-45
2021/09/23 01:51:40;;;;;;;19.42;3.42;;;;;;;;;;5077174;28;20032;-38
2021/09/23 01:54:07;;;;;;;15.57;3.15;;;;;;;;;;5075912;28;20039;-39
2021/09/23 01:56:34;;;;;;;6.05;2.08;;;;;;;;;;5076138;28;20542;-41
2021/09/23 01:59:01;;;;;;;12.00;2.90;;;;;;;;;;5074479;28;20064;-42
2021/09/23 02:01:28;;;;;;;15.20;2.95;;;;;;;;;;5078789;28;20024;-40
2021/09/23 02:03:55;;;;;;;14.85;2.35;;;;;;;;;;5077434;28;20471;-43
2021/09/23 02:06:22;;;;;;;16.95;3.08;;;;;;;;;;5060128;28;20032;-38
2021/09/23 02:08:49;;;;;;;10.40;2.72;;;;;;;;;;5077138;28;20029;-38
2021/09/23 02:11:17;;;;;;;11.27;2.60;;;;;;;;;;5082646;28;20103;-37
2021/09/23 02:13:44;;;;;;;15.20;2.47;;;;;;;;;;5081251;28;20039;-42
2021/09/23 02:16:11;;;;;;;8.60;2.47;;;;;;;;;;5074181;28;20025;-38
2021/09/23 02:18:38;;;;;;;11.02;2.53;;;;;;;;;;5064604;28;20392;-40
2021/09/23 02:21:05;;;;;;;13.07;2.30;;;;;;;;;;5076282;28;20025;-41
2021/09/23 02:23:32;;;;;;;10.57;2.10;;;;;;;;;;5067842;28;20036;-45
2021/09/23 02:25:59;;;;;;;8.63;2.05;;;;;;;;;;5069690;28;20024;-39
2021/09/23 02:28:26;;;;;;;10.40;2.20;;;;;;;;;;5073483;28;20131;-40
2021/09/23 02:30:53;;;;;;;8.07;2.30;;;;;;;;;;5076128;28;20130;-38
2021/09/23 02:33:20;;;;;;;9.82;2.30;;;;;;;;;;5076295;28;20094;-38
2021/09/23 02:35:47;;;;;;;11.57;2.70;;;;;;;;;;5078000;28;20016;-38
2021/09/23 02:38:14;;;;;;;11.07;2.58;;;;;;;;;;5077818;28;20780;-39
2021/09/23 02:40:41;;;;;;;8.65;2.28;;;;;;;;;;5071644;28;20468;-39
2021/09/23 02:43:08;;;;;;;12.73;2.70;;;;;;;;;;5072399;28;20066;-38
2021/09/23 02:45:35;;;;;;;11.73;2.00;;;;;;;;;;5072712;28;20028;-38
2021/09/23 02:48:05;;;;;;;7.97;2.58;;;;;;;;;;5075334;28;20050;-39
2021/09/23 02:50:32;;;;;;;9.15;2.45;;;;;;;;;;5079349;28;20017;-38
2021/09/23 02:52:59;;;;;;;13.23;2.45;;;;;;;;;;5077585;28;20027;-39
2021/09/23 02:55:26;;;;;;;6.43;1.67;;;;;;;;;;5075441;28;20016;-38
2021/09/23 02:57:53;;;;;;;9.63;2.40;;;;;;;;;;5078462;28;20446;-40
2021/09/23 03:00:20;;;;;;;7.38;2.10;;;;;;;;;;5071054;28;20028;-39
2021/09/23 03:02:48;;;;;;;7.70;1.92;;;;;;;;;;5067783;28;20041;-38
2021/09/23 03:05:15;;;;;;;11.02;2.03;;;;;;;;;;5067799;28;20028;-38
2021/09/23 03:07:42;;;;;;;12.32;2.28;;;;;;;;;;5070458;28;20025;-38
2021/09/23 03:10:09;;;;;;;10.02;1.90;;;;;;;;;;5070489;28;20032;-39
2021/09/23 03:12:36;;;;;;;10.48;2.10;;;;;;;;;;5071202;28;20029;-38
2021/09/23 03:15:03;;;;;;;10.43;1.83;;;;;;;;;;5071183;28;20016;-39
2021/09/23 03:17:30;;;;;;;8.43;2.50;;;;;;;;;;5070928;28;20067;-38
2021/09/23 03:19:57;;;;;;;12.00;1.98;;;;;;;;;;5069600;28;20468;-39
2021/09/23 03:22:26;;;;;;;10.73;2.15;;;;;;;;;;5071598;28;20426;-39
2021/09/23 03:24:53;;;;;;;11.88;2.30;;;;;;;;;;5070658;28;20464;-38
2021/09/23 03:27:21;;;;;;;7.38;1.80;;;;;;;;;;5071807;28;20028;-38
2021/09/23 03:29:48;;;;;;;9.70;1.80;;;;;;;;;;5071178;28;20047;-41
2021/09/23 03:32:15;;;;;;;6.85;2.17;;;;;;;;;;5071256;28;20439;-38
2021/09/23 03:34:42;;;;;;;9.90;1.95;;;;;;;;;;5070865;28;20109;-38
2021/09/23 03:37:09;;;;;;;12.73;2.03;;;;;;;;;;5071677;28;20361;-39
2021/09/23 03:39:36;;;;;;;8.63;1.67;;;;;;;;;;5070907;28;20021;-41
2021/09/23 03:42:04;;;;;;;13.65;2.15;;;;;;;;;;5071374;28;20021;-39
2021/09/23 03:44:31;;;;;;;8.73;1.75;;;;;;;;;;5070761;28;20028;-39
2021/09/23 03:46:58;;;;;;;6.32;2.10;;;;;;;;;;5071105;28;20021;-37
2021/09/23 03:49:25;;;;;;;7.00;1.92;;;;;;;;;;5071095;28;20056;-39
2021/09/23 03:51:53;;;;;;;8.05;1.50;;;;;;;;;;5071474;28;20017;-38
2021/09/23 03:54:20;;;;;;;4.63;1.98;;;;;;;;;;5071145;28;20066;-39
2021/09/23 03:56:47;;;;;;;9.60;2.05;;;;;;;;;;5070719;28;20036;-39
2021/09/23 03:59:14;;;;;;;6.95;1.83;;;;;;;;;;5071629;28;20028;-39
2021/09/23 04:01:41;;;;;;;7.32;1.90;;;;;;;;;;5070699;28;20472;-38
2021/09/23 04:04:09;;;;;;;5.03;1.73;;;;;;;;;;5071132;28;20040;-39
2021/09/23 04:06:42;;;;;;;9.48;2.10;;;;;;;;;;5071021;28;20480;-42
2021/09/23 04:09:09;;;;;;;4.55;1.63;;;;;;;;;;5074708;28;20032;-39
2021/09/23 04:11:36;;;;;;;5.82;1.52;;;;;;;;;;5074795;28;20029;-39
2021/09/23 04:14:04;;;;;;;5.80;1.40;;;;;;;;;;5075155;28;20488;-39
2021/09/23 04:16:31;;;;;;;6.50;1.90;;;;;;;;;;5074294;28;20052;-39
2021/09/23 04:18:58;;;;;;;7.90;1.73;;;;;;;;;;5075172;28;20477;-39
2021/09/23 04:21:25;;;;;;;4.72;1.55;;;;;;;;;;5074631;28;20106;-39
2021/09/23 04:23:53;;;;;;;9.48;1.80;;;;;;;;;;5074910;28;20036;-39
2021/09/23 04:26:20;;;;;;;4.18;1.45;;;;;;;;;;5074250;28;20127;-42
2021/09/23 04:28:47;;;;;;;7.30;1.52;;;;;;;;;;5074924;28;20024;-39
2021/09/23 04:31:14;;;;;;;8.00;1.70;;;;;;;;;;5074169;28;20047;-39
2021/09/23 04:33:41;;;;;;;4.93;1.30;;;;;;;;;;5073913;28;20033;-38
2021/09/23 04:36:08;;;;;;;6.05;1.92;;;;;;;;;;5074424;28;20100;-38
2021/09/23 04:38:34;;;;;;;6.88;1.33;;;;;;;;;;5074472;28;20036;-39
2021/09/23 04:41:01;;;;;;;5.53;1.67;;;;;;;;;;5074703;28;20028;-39
2021/09/23 04:43:28;;;;;;;7.20;1.65;;;;;;;;;;5074066;28;20028;-39
2021/09/23 04:45:55;;;;;;;7.38;1.83;;;;;;;;;;5074109;28;20035;-38
2021/09/23 04:48:22;;;;;;;2.78;1.70;;;;;;;;;;5074036;28;20031;-38
2021/09/23 04:50:49;;;;;;;8.68;1.83;;;;;;;;;;5074391;28;20032;-38
2021/09/23 04:53:16;;;;;;;5.78;1.60;;;;;;;;;;5074112;28;20039;-39
2021/09/23 04:55:43;;;;;;;4.28;1.45;;;;;;;;;;5074373;28;20107;-39
2021/09/23 04:58:10;;;;;;;7.15;1.70;;;;;;;;;;5072370;28;20032;-40
2021/09/23 05:00:37;;;;;;;3.78;1.23;;;;;;;;;;5074240;28;20035;-39
2021/09/23 05:03:04;;;;;;;5.82;1.45;;;;;;;;;;5073717;28;20020;-39
2021/09/23 05:05:31;;;;;;;4.47;1.27;;;;;;;;;;5074082;28;20036;-39
2021/09/23 05:07:58;;;;;;;4.32;1.50;;;;;;;;;;5073833;28;20042;-38
2021/09/23 05:10:26;;;;;;;6.07;1.42;;;;;;;;;;5073971;28;20107;-39
2021/09/23 05:12:53;;;;;;;7.38;1.77;;;;;;;;;;5074127;28;20029;-38
2021/09/23 05:15:20;;;;;;;5.32;1.60;;;;;;;;;;5073442;28;20488;-39
2021/09/23 05:17:47;;;;;;;4.72;1.30;;;;;;;;;;5073603;28;20029;-39
2021/09/23 05:20:14;;;;;;;5.07;1.55;;;;;;;;;;5073107;28;20515;-39
2021/09/23 05:22:41;;;;;;;5.07;1.42;;;;;;;;;;5074026;28;20039;-40
2021/09/23 05:25:09;;;;;;;7.07;1.30;;;;;;;;;;5073347;28;20391;-39
2021/09/23 05:27:36;;;;;;;5.00;1.67;;;;;;;;;;5073613;28;20100;-40
2021/09/23 05:30:04;;;;;;;4.38;1.63;;;;;;;;;;5072756;28;20587;-38
2021/09/23 05:32:31;;;;;;;2.60;1.05;;;;;;;;;;5073566;28;20036;-41
2021/09/23 05:34:58;;;;;;;7.65;2.00;;;;;;;;;;5073301;28;20052;-39
2021/09/23 05:37:25;;;;;;;3.10;1.40;;;;;;;;;;5235698;22;20023;-38
2021/09/23 05:39:52;;;;;;;3.50;1.25;;;;;;;;;;4993275;28;20045;-38
2021/09/23 05:42:19;;;;;;;1.95;1.10;;;;;;;;;;5012451;28;20036;-38
2021/09/23 05:44:46;;;;;;;7.28;1.80;;;;;;;;;;5013323;28;20021;-38
2021/09/23 05:47:13;;;;;;;3.78;1.10;;;;;;;;;;5013027;28;20022;-39
2021/09/23 05:49:41;;;;;;;3.80;1.40;;;;;;;;;;5013530;28;20101;-39
2021/09/23 05:52:08;;;;;;;3.10;1.35;;;;;;;;;;5013189;28;20022;-39
2021/09/23 05:54:35;;;;;;;3.35;1.27;;;;;;;;;;5013293;28;20105;-39
2021/09/23 05:57:02;;;;;;;4.53;1.35;;;;;;;;;;5012536;28;20026;-38
2021/09/23 05:59:29;;;;;;;5.50;1.60;;;;;;;;;;5013149;28;20494;-38
2021/09/23 06:01:56;;;;;;;4.78;1.70;;;;;;;;;;5012913;28;20355;-40
2021/09/23 06:04:24;;;;;;;3.05;1.10;;;;;;;;;;5013142;28;20092;-39
2021/09/23 06:06:51;;;;;;;5.85;1.80;;;;;;;;;;5012840;28;20101;-38
2021/09/23 06:09:18;;;;;;;2.85;1.00;;;;;;;;;;5012454;28;20029;-38
2021/09/23 06:11:45;;;;;;;4.63;1.35;;;;;;;;;;5012670;28;20390;-38
2021/09/23 06:14:12;;;;;;;3.22;1.17;;;;;;;;;;5013162;28;20045;-39
2021/09/23 06:16:39;;;;;;;4.30;1.50;;;;;;;;;;5011254;28;20663;-39
2021/09/23 06:19:07;;;;;;;3.15;1.00;;;;;;;;;;5012653;28;20018;-38
2021/09/23 06:21:34;;;;;;;4.93;1.30;;;;;;;;;;5012823;28;20026;-40
2021/09/23 06:24:01;;;;;;;4.30;1.30;;;;;;;;;;5012593;28;20609;-39
2021/09/23 06:26:28;;;;;;;4.03;1.23;;;;;;;;;;5012755;28;20025;-39
2021/09/23 06:28:55;;;;;;;4.13;1.33;;;;;;;;;;5012370;28;20025;-39
2021/09/23 06:31:22;;;;;;;3.15;0.98;;;;;;;;;;5012230;28;20037;-39
2021/09/23 06:33:49;;;;;;;2.55;1.20;;;;;;;;;;5012128;28;20038;-40
2021/09/23 06:36:16;;;;;;;5.53;1.50;;;;;;;;;;5012877;28;20474;-39
2021/09/23 06:38:43;;;;;;;3.78;1.30;;;;;;;;;;5011817;28;20080;-38
2021/09/23 06:41:11;;;;;;;1.63;0.77;;;;;;;;;;5012657;28;20017;-38
2021/09/23 06:43:38;;;;;;;2.55;1.23;;;;;;;;;;5012065;28;20018;-39
2021/09/23 06:46:05;;;;;;;4.05;1.50;;;;;;;;;;5012595;28;20018;-38
2021/09/23 06:48:32;;;;;;;4.32;1.13;;;;;;;;;;5010482;28;20517;-38
2021/09/23 06:50:59;;;;;;;2.65;0.90;;;;;;;;;;5012569;28;20444;-38
2021/09/23 06:53:27;;;;;;;2.65;1.02;;;;;;;;;;5009620;28;20061;-39
2021/09/23 06:55:54;;;;;;;6.15;1.25;;;;;;;;;;5012131;28;20025;-38
2021/09/23 06:58:21;;;;;;;3.30;1.30;;;;;;;;;;5011898;28;20026;-39
2021/09/23 07:00:48;;;;;;;4.65;1.15;;;;;;;;;;5011928;28;20032;-40
2021/09/23 07:03:15;;;;;;;4.20;1.13;;;;;;;;;;5012099;28;20490;-39
2021/09/23 07:05:43;;;;;;;3.28;1.17;;;;;;;;;;5011622;28;20091;-38
2021/09/23 07:08:14;;;;;;;3.13;1.10;;;;;;;;;;5011884;28;20481;-38
2021/09/23 07:10:41;;;;;;;3.85;1.40;;;;;;;;;;5011732;28;20496;-39
2021/09/23 07:13:08;;;;;;;3.03;1.05;;;;;;;;;;5012297;28;20034;-39
2021/09/23 07:15:35;;;;;;;5.40;1.10;;;;;;;;;;5011498;28;20025;-38
2021/09/23 07:18:02;;;;;;;3.03;1.10;;;;;;;;;;5011860;28;20045;-40
2021/09/23 07:20:29;;;;;;;2.67;1.15;;;;;;;;;;5011472;28;20021;-38
2021/09/23 07:22:56;;;;;;;2.95;0.90;;;;;;;;;;5012127;28;20018;-38
2021/09/23 07:25:26;;;;;;;2.33;1.17;;;;;;;;;;5011299;28;20497;-38
2021/09/23 07:27:55;;;;;;;2.53;1.05;;;;;;;;;;5012019;28;20022;-39
2021/09/23 07:30:22;;;;;;;4.35;1.30;;;;;;;;;;5011483;28;20033;-38
2021/09/23 07:32:50;;;;;;;3.15;1.17;;;;;;;;;;5012072;28;20026;-39
2021/09/23 07:35:17;;;;;;;1.90;0.98;;;;;;;;;;5010466;28;20029;-38
2021/09/23 07:37:44;;;;;;;3.20;1.13;;;;;;;;;;5010939;28;20042;-37
2021/09/23 07:40:11;;;;;;;1.98;1.10;;;;;;;;;;5011857;28;20026;-39
2021/09/23 07:42:40;;;;;;;3.38;1.05;;;;;;;;;;5014067;28;20104;-38
2021/09/23 07:45:08;;;;;;;3.05;0.98;;;;;;;;;;5014333;28;20010;-38
2021/09/23 07:47:35;;;;;;;2.00;1.08;;;;;;;;;;5015281;28;20030;-39
2021/09/23 07:50:02;;;;;;;2.65;1.00;;;;;;;;;;5015657;28;20018;-38
2021/09/23 07:52:29;;;;;;;2.05;0.80;;;;;;;;;;5015017;28;20025;-39
2021/09/23 07:54:56;;;;;;;3.45;1.15;;;;;;;;;;5014505;28;20474;-38
2021/09/23 07:57:24;;;;;;;2.78;1.00;;;;;;;;;;5015056;28;20030;-38
2021/09/23 07:59:51;;;;;;;2.35;0.90;;;;;;;;;;5015396;28;20026;-37
2021/09/23 08:02:18;;;;;;;1.30;0.80;;;;;;;;;;5015626;28;20029;-39
2021/09/23 08:04:45;;;;;;;2.15;0.70;;;;;;;;;;5015082;28;20471;-39
2021/09/23 08:07:17;;;;;;;2.00;0.75;;;;;;;;;;5015106;28;20041;-38
2021/09/23 08:09:45;;;;;;;1.92;1.00;;;;;;;;;;5014889;28;20017;-39
2021/09/23 08:12:13;;;;;;;1.83;0.70;;;;;;;;;;5015325;28;20499;-39
2021/09/23 08:14:40;;;;;;;5.45;1.25;;;;;;;;;;5014799;28;20033;-39
2021/09/23 08:17:07;;;;;;;1.38;0.70;;;;;;;;;;5015331;28;20534;-38
2021/09/23 08:19:37;;;;;;;1.40;0.80;;;;;;;;;;5014368;28;20122;-39
2021/09/23 08:22:05;;;;;;;2.33;0.80;;;;;;;;;;5014175;28;20022;-39
2021/09/23 08:24:33;;;;;;;3.83;1.00;;;;;;;;;;5013011;28;20053;-40
2021/09/23 08:27:00;;;;;;;1.67;1.00;;;;;;;;;;5015077;28;20060;-39
2021/09/23 08:29:27;;;;;;;2.47;1.00;;;;;;;;;;5014474;28;20022;-38
2021/09/23 08:31:55;;;;;;;1.73;0.70;;;;;;;;;;5015132;28;20482;-38
2021/09/23 08:34:22;;;;;;;1.50;0.60;;;;;;;;;;5014481;28;20544;-41
2021/09/23 08:36:49;;;;;;;4.03;0.98;;;;;;;;;;5014963;28;20584;-38
2021/09/23 08:39:16;;;;;;;1.58;0.95;;;;;;;;;;5014524;28;20072;-38
2021/09/23 08:41:47;;;;;;;1.40;0.65;;;;;;;;;;5014447;28;20026;-39
2021/09/23 08:44:14;;;;;;;1.30;0.60;;;;;;;;;;5014836;28;20101;-39
2021/09/23 08:46:41;;;;;;;3.00;0.80;;;;;;;;;;5014361;28;20478;-39
2021/09/23 08:49:08;;;;;;;1.10;0.60;;;;;;;;;;5014789;28;20351;-38
2021/09/23 08:51:36;;;;;;;1.98;0.75;;;;;;;;;;5014065;28;20021;-37
2021/09/23 08:54:03;;;;;;;1.73;0.80;;;;;;;;;;5014166;28;20456;-37
2021/09/23 08:56:30;;;;;;;1.92;0.70;;;;;;;;;;5014359;28;20021;-38
2021/09/23 08:58:57;;;;;;;1.48;0.70;;;;;;;;;;5014782;28;20096;-39
2021/09/23 09:01:29;;;;;;;2.53;0.50;;;;;;;;;;5012453;28;20125;-38
2021/09/23 09:04:01;;;;;;;0.95;0.60;;;;;;;;;;5014754;28;20050;-38
2021/09/23 09:06:28;;;;;;;1.13;0.50;;;;;;;;;;5014187;28;20426;-38
2021/09/23 09:08:56;;;;;;;3.75;0.88;;;;;;;;;;5014492;28;20026;-37
2021/09/23 09:11:23;;;;;;;1.48;0.60;;;;;;;;;;5013627;28;20014;-42
2021/09/23 09:13:52;;;;;;;0.93;0.63;;;;;;;;;;5014896;28;20030;-38
2021/09/23 09:16:26;;;;;;;1.38;0.47;;;;;;;;;;5014001;28;20409;-39
2021/09/23 09:18:55;;;;;;;1.08;0.60;;;;;;;;;;5013924;28;20062;-39
2021/09/23 09:21:23;;;;;;;1.83;0.60;;;;;;;;;;5013935;28;20050;-39
2021/09/23 09:24:08;;;;;;;1.95;0.60;;;;;;;;;;5013949;28;20392;-38
2021/09/23 09:26:41;;;;;;;0.95;0.57;;;;;;;;;;5014175;28;20024;-40
2021/09/23 09:29:09;;;;;;;0.90;0.60;;;;;;;;;;5013408;28;20034;-38
2021/09/23 09:31:37;;;;;;;1.65;0.55;;;;;;;;;;5013588;28;20056;-39
2021/09/23 09:34:05;;;;;;;1.92;0.50;;;;;;;;;;5013480;28;20033;-39
2021/09/23 09:36:40;;;;;;;1.27;0.70;;;;;;;;;;5013762;28;20101;-38
2021/09/23 09:39:13;;;;;;;3.42;0.70;;;;;;;;;;5011635;28;20049;-38
2021/09/23 09:41:41;;;;;;;1.10;0.47;;;;;;;;;;5013438;28;20029;-38
2021/09/23 09:44:10;;;;;;;1.23;0.50;;;;;;;;;;5013360;28;20026;-38
2021/09/23 09:47:03;;;;;;;1.38;0.50;;;;;;;;;;5013466;28;20077;-38
2021/09/23 09:49:29;;;;;;;;;;;;;;;;;;5011761;28;20181;-38
2021/09/23 09:52:00;;;;;;;1.15;0.57;;;;;;;;;;5013129;28;19936;-38
2021/09/23 09:54:27;;;;;;;2.05;0.60;;;;;;;;;;5013088;28;20485;-40
2021/09/23 09:56:59;;;;;;;2.20;0.70;;;;;;;;;;5013655;28;20518;-37
2021/09/23 09:59:26;;;;;;;1.30;0.70;;;;;;;;;;5012979;28;20498;-38
2021/09/23 10:01:54;;;;;;;1.13;0.60;;;;;;;;;;5013144;28;20121;-38
2021/09/23 10:04:22;;;;;;;1.20;0.40;;;;;;;;;;5012785;28;20018;-37
2021/09/23 10:06:49;;;;;;;1.67;0.70;;;;;;;;;;5012107;28;20022;-38
2021/09/23 10:09:17;;;;;;;0.90;0.50;;;;;;;;;;5013000;28;20395;-38
2021/09/23 10:11:46;;;;;;;0.90;0.57;;;;;;;;;;5012577;28;20056;-38
2021/09/23 10:14:13;;;;;;;1.05;0.60;;;;;;;;;;5013067;28;20033;-38
2021/09/23 10:16:40;;;;;;;1.25;0.50;;;;;;;;;;5011919;28;20152;-38
2021/09/23 10:19:08;;;;;;;0.80;0.50;;;;;;;;;;5011573;28;20413;-38
2021/09/23 10:21:35;;;;;;;1.17;0.38;;;;;;;;;;5011888;28;20014;-39
2021/09/23 10:24:03;;;;;;;1.33;0.52;;;;;;;;;;5012976;28;20444;-39
2021/09/23 10:26:32;;;;;;;0.57;0.38;;;;;;;;;;5012428;28;20157;-39
2021/09/23 10:29:00;;;;;;;2.38;0.70;;;;;;;;;;5013105;28;20030;-39
2021/09/23 10:31:35;;;;;;;1.83;0.63;;;;;;;;;;5011996;28;20018;-40
2021/09/23 10:34:03;;;;;;;2.65;0.75;;;;;;;;;;5011280;28;20394;-39
2021/09/23 10:36:32;;;;;;;1.15;0.45;;;;;;;;;;5012270;28;20101;-39
2021/09/23 10:39:00;;;;;;;1.05;0.50;;;;;;;;;;5012610;28;20052;-38
2021/09/23 10:41:27;;;;;;;0.95;0.50;;;;;;;;;;5011904;28;20025;-40
2021/09/23 10:43:55;;;;;;;1.23;0.45;;;;;;;;;;5012734;28;20029;-39
2021/09/23 10:46:25;;;;;;;2.47;0.40;;;;;;;;;;5012335;28;20028;-39
2021/09/23 10:48:53;;;;;;;0.65;0.50;;;;;;;;;;5011900;28;20374;-39
2021/09/23 10:51:21;;;;;;;0.77;0.65;;;;;;;;;;5012406;28;20014;-39
2021/09/23 10:53:58;;;;;;;1.60;0.80;;;;;;;;;;5011858;28;20040;-39
2021/09/23 10:56:27;;;;;;;0.95;0.50;;;;;;;;;;5012532;28;20026;-43
2021/09/23 10:58:54;;;;;;;1.98;0.88;;;;;;;;;;5011716;28;20030;-40
2021/09/23 11:01:29;;;;;;;1.42;0.70;;;;;;;;;;5011978;28;20022;-40
2021/09/23 11:03:58;;;;;;;2.33;0.80;;;;;;;;;;5011715;28;20068;-39
2021/09/23 11:06:33;;;;;;;1.60;0.88;;;;;;;;;;5012217;28;20046;-38
2021/09/23 11:09:17;;;;;;;1.08;0.60;;;;;;;;;;5011358;28;20084;-38
2021/09/23 11:11:49;;;;;;;4.32;0.50;;;;;;;;;;5011374;28;20493;-39
2021/09/23 11:14:16;;;;;;;1.10;0.70;;;;;;;;;;5010758;28;20034;-37
2021/09/23 11:16:53;;;;;;;1.98;0.70;;;;;;;;;;5004301;28;20018;-41
2021/09/23 11:19:22;;;;;;;4.38;0.80;;;;;;;;;;5008784;28;20068;-39
2021/09/23 11:21:56;;;;;;;3.15;0.77;;;;;;;;;;5010556;28;20037;-36
2021/09/23 11:24:24;;;;;;;2.05;0.70;;;;;;;;;;5010440;28;20454;-39
2021/09/23 11:26:51;;;;;;;1.88;0.65;;;;;;;;;;5007509;28;20121;-43
2021/09/23 11:29:19;;;;;;;4.35;0.93;;;;;;;;;;4994558;28;20536;-39
2021/09/23 11:31:47;;;;;;;3.03;0.90;;;;;;;;;;5010839;28;20030;-43
2021/09/23 11:34:14;;;;;;;4.70;1.13;;;;;;;;;;5009716;28;20034;-42
2021/09/23 11:36:43;;;;;;;5.72;1.10;;;;;;;;;;5010268;28;20026;-38
2021/09/23 11:39:20;;;;;;;2.95;1.10;;;;;;;;;;5010307;28;20065;-45
2021/09/23 11:42:05;;;;;;;4.93;1.10;;;;;;;;;;5010404;28;20025;-39
2021/09/23 11:44:32;;;;;;;3.00;0.90;;;;;;;;;;5009977;28;20505;-38
2021/09/23 11:46:59;;;;;;;3.80;1.10;;;;;;;;;;5010824;28;20105;-38
2021/09/23 11:49:26;;;;;;;2.80;0.95;;;;;;;;;;5010624;28;20044;-44
2021/09/23 11:51:55;;;;;;;8.15;1.50;;;;;;;;;;5010103;28;20057;-38
2021/09/23 11:54:25;;;;;;;9.18;1.70;;;;;;;;;;5010046;28;20066;-40
2021/09/23 11:56:52;;;;;;;6.78;1.20;;;;;;;;;;5010255;28;20088;-39
2021/09/23 11:59:20;;;;;;;5.15;1.33;;;;;;;;;;5010446;28;20022;-43
2021/09/23 12:01:47;;;;;;;4.05;1.60;;;;;;;;;;5010006;28;20101;-37
2021/09/23 12:04:14;;;;;;;3.72;1.10;;;;;;;;;;5010497;28;20439;-40
2021/09/23 12:06:41;;;;;;;4.85;1.00;;;;;;;;;;5009725;28;20018;-39
2021/09/23 12:09:09;;;;;;;2.70;0.90;;;;;;;;;;5010263;28;20430;-38
2021/09/23 12:11:36;;;;;;;4.10;0.90;;;;;;;;;;5008965;28;20037;-38
2021/09/23 12:14:07;;;;;;;2.65;0.90;;;;;;;;;;5010080;28;20069;-38
2021/09/23 12:16:34;;;;;;;4.32;0.90;;;;;;;;;;5009543;28;20022;-37
2021/09/23 12:19:03;;;;;;;3.55;1.05;;;;;;;;;;5010632;28;20083;-38
2021/09/23 12:21:33;;;;;;;2.53;0.75;;;;;;;;;;5010158;28;20022;-37
2021/09/23 12:24:00;;;;;;;3.60;0.77;;;;;;;;;;5008944;28;20026;-43
2021/09/23 12:26:35;;;;;;;3.10;0.70;;;;;;;;;;5009565;28;20050;-41
2021/09/23 12:29:04;;;;;;;4.40;1.15;;;;;;;;;;5011295;28;20026;-37
2021/09/23 12:31:31;;;;;;;2.40;0.65;;;;;;;;;;5014440;28;20466;-36
2021/09/23 12:34:01;;;;;;;2.60;0.80;;;;;;;;;;5013751;28;20038;-38
2021/09/23 12:36:28;;;;;;;3.05;0.75;;;;;;;;;;5014721;28;20018;-40
2021/09/23 12:39:15;;;;;;;1.67;0.75;;;;;;;;;;5012079;28;20046;-40
2021/09/23 12:42:02;;;;;;;2.47;0.80;;;;;;;;;;5013953;28;20026;-38
2021/09/23 12:44:30;;;;;;;2.10;0.70;;;;;;;;;;5005667;28;20631;-38
2021/09/23 12:47:14;;;;;;;3.70;0.80;;;;;;;;;;5013576;28;20057;-40
2021/09/23 12:49:43;;;;;;;2.80;0.90;;;;;;;;;;5012847;28;20061;-41
2021/09/23 12:52:15;;;;;;;3.58;0.90;;;;;;;;;;5014238;28;20037;-41
2021/09/23 12:54:49;;;;;;;2.38;0.70;;;;;;;;;;5013372;28;20037;-37
2021/09/23 12:57:20;;;;;;;1.77;0.70;;;;;;;;;;5013915;28;20095;-37
2021/09/23 12:59:47;;;;;;;2.55;0.90;;;;;;;;;;5012207;28;20045;-37
2021/09/23 13:02:16;;;;;;;3.38;0.80;;;;;;;;;;5013994;28;20022;-36
2021/09/23 13:04:44;;;;;;;2.67;0.70;;;;;;;;;;5013391;28;20030;-38
2021/09/23 13:07:21;;;;;;;2.05;0.85;;;;;;;;;;5013473;28;20420;-39
2021/09/23 13:10:06;;;;;;;7.80;0.95;;;;;;;;;;5012973;28;20041;-37
2021/09/23 13:12:34;;;;;;;3.58;1.00;;;;;;;;;;5013099;28;20018;-36
2021/09/23 13:15:01;;;;;;;2.80;0.80;;;;;;;;;;5013568;28;20022;-40
2021/09/23 13:17:28;;;;;;;3.20;1.20;;;;;;;;;;5012894;28;20022;-36
2021/09/23 13:19:55;;;;;;;4.80;0.80;;;;;;;;;;5012646;28;20057;-38
2021/09/23 13:22:22;;;;;;;3.00;0.77;;;;;;;;;;5011405;28;20026;-37
2021/09/23 13:24:49;;;;;;;2.85;0.80;;;;;;;;;;5012714;28;20022;-37
2021/09/23 13:27:16;;;;;;;3.65;0.90;;;;;;;;;;5012178;28;20034;-37
2021/09/23 13:29:43;;;;;;;2.63;0.85;;;;;;;;;;5012622;28;20018;-38
2021/09/23 13:32:11;;;;;;;2.22;1.00;;;;;;;;;;5011997;28;20022;-38
2021/09/23 13:34:38;;;;;;;4.68;0.77;;;;;;;;;;5012369;28;20026;-41
2021/09/23 13:37:05;;;;;;;3.47;1.00;;;;;;;;;;5012358;28;20024;-43
2021/09/23 13:39:32;;;;;;;5.40;0.82;;;;;;;;;;5012370;28;20042;-48
2021/09/23 13:41:59;;;;;;;10.32;0.90;;;;;;;;;;5010864;28;20549;-36
2021/09/23 13:44:26;;;;;;;5.85;1.52;;;;;;;;;;5011917;28;20497;-37
2021/09/23 13:46:53;;;;;;;3.92;1.00;;;;;;;;;;5013193;28;20022;-35
2021/09/23 13:49:20;;;;;;;7.05;1.55;;;;;;;;;;5012771;28;20026;-38
2021/09/23 13:51:47;;;;;;;6.22;1.20;;;;;;;;;;5013021;28;20486;-36
2021/09/23 13:54:14;;;;;;;14.68;1.50;;;;;;;;;;5010522;28;20041;-36
2021/09/23 13:56:41;;;;;;;3.97;0.90;;;;;;;;;;5012927;28;20080;-40
2021/09/23 13:59:08;;;;;;;7.05;1.45;;;;;;;;;;5002550;28;20026;-38
2021/09/23 14:01:36;;;;;;;6.28;1.05;;;;;;;;;;4992921;28;20018;-38
2021/09/23 14:04:03;;;;;;;6.22;0.80;;;;;;;;;;5006905;28;20633;-38
2021/09/23 14:06:30;;;;;;;5.85;0.88;;;;;;;;;;5011420;28;20014;-36
2021/09/23 14:08:57;;;;;;;5.57;1.27;;;;;;;;;;5012605;28;20124;-38
2021/09/23 14:11:24;;;;;;;9.45;1.40;;;;;;;;;;5012051;28;20026;-36
2021/09/23 14:13:51;;;;;;;9.90;1.65;;;;;;;;;;5011489;28;20468;-43
2021/09/23 14:16:18;;;;;;;10.98;1.88;;;;;;;;;;5010696;28;20034;-45
2021/09/23 14:18:45;;;;;;;9.23;1.73;;;;;;;;;;5012314;28;20026;-38
2021/09/23 14:21:12;;;;;;;18.10;2.22;;;;;;;;;;5011534;28;20425;-37
2021/09/23 14:23:39;;;;;;;11.55;1.83;;;;;;;;;;5012263;28;20026;-36
2021/09/23 14:26:07;;;;;;;19.38;1.98;;;;;;;;;;5010615;28;20486;-38
2021/09/23 14:28:34;;;;;;;15.15;2.10;;;;;;;;;;5011821;28;20037;-36
2021/09/23 14:31:01;;;;;;;9.10;1.70;;;;;;;;;;5012026;28;20053;-38
2021/09/23 14:33:28;;;;;;;13.40;2.72;;;;;;;;;;5011521;28;20088;-36
2021/09/23 14:35:55;;;;;;;12.75;2.67;;;;;;;;;;5011789;28;20057;-37
2021/09/23 14:38:28;;;;;;;13.60;2.40;;;;;;;;;;5010078;28;20026;-36
2021/09/23 14:40:57;;;;;;;15.60;2.30;;;;;;;;;;5008462;28;20461;-39
2021/09/23 14:43:24;;;;;;;26.05;2.67;;;;;;;;;;5006369;28;20039;-40
2021/09/23 14:45:52;;;;;;;12.55;2.28;;;;;;;;;;5008079;28;20030;-33
2021/09/23 14:48:22;;;;;;;18.55;2.72;;;;;;;;;;4997214;28;20455;-39